CheckWX is a tool to help pilots better visualize weather data.  It is not intended as a substitute for an official pre-flight weather briefing.

16:57:20 UTC

KXNA TAF
Northwest Arkansas Regional Airport
Fayetteville/Springdale/Rogers, Arkansas, USA
KXNA 221540Z 2216/2312 01011KT P6SM SCT009 OVC014 FM221700 01012KT P6SM SCT015 BKN025 FM222000 01012G19KT P6SM SCT040 FM230100 01005KT P6SM FEW250

Jul-22@
16:00 UTC

Jul-22 @ 16:00 UTC

Jul-22@
17:00 UTC

Jul-22 @ 17:00 UTC

KXNA 221540Z 2216/2312 01011KT P6SM SCT009 OVC014
Wind
  • 010° at 11 KTS
Cloud Levels
  • Scattered at 900' AGL
  • Overcast at 1,400' AGL

Jul-22@
17:00 UTC

Jul-22 @ 17:00 UTC

Jul-22@
20:00 UTC

Jul-22 @ 20:00 UTC

FM221700 01012KT P6SM SCT015 BKN025

From

From Standard forecast or significant change

Wind
  • 010° at 12 KTS
Cloud Levels
  • Scattered at 1,500' AGL
  • Broken at 2,500' AGL

Jul-22@
20:00 UTC

Jul-22 @ 20:00 UTC

Jul-23@
01:00 UTC

Jul-23 @ 01:00 UTC

FM222000 01012G19KT P6SM SCT040

From

From Standard forecast or significant change

Wind
  • 010° at 12 KTS
  • {Gusting to 19 KTS
Cloud Levels
  • Scattered at 4,000' AGL

Jul-23@
01:00 UTC

Jul-23 @ 01:00 UTC

Jul-23@
12:00 UTC

Jul-23 @ 12:00 UTC

FM230100 01005KT P6SM FEW250

From

From Standard forecast or significant change

Wind
  • 010° at 5 KTS
Cloud Levels
  • Few at 25,000' AGL